Time;durP1;ratioP1;P1;durP2;ratioP2;P2;SDS_P1;SDS_P2;PMS_P1;PMS_P2;Temp;Humidity;BMP_temperature;BMP_pressure;BME280_temperature;BME280_humidity;BME280_pressure;Samples;Min_cycle;Max_cycle;Signal;HPM_P1;HPM_P2
2023/04/19 04:27:10;;;;;;;;;;;12.20;86.50;;;;;;6142976;23;19928;-96
2023/04/19 04:29:42;;;;;;;;;;;12.10;86.70;;;;;;6125295;23;19953;-96
2023/04/19 04:32:20;;;;;;;;;;;;;;;;;;;;;
2023/04/19 04:34:47;;;;;;;;;;;11.90;86.70;;;;;;6152738;23;19908;-96
2023/04/19 04:37:15;;;;;;;;;;;11.90;86.80;;;;;;6126397;23;19898;-96
2023/04/19 04:39:46;;;;;;;;;;;11.90;86.80;;;;;;6152327;23;19893;-96
2023/04/19 04:42:21;;;;;;;;;;;11.90;87.00;;;;;;6104363;23;19909;-96
2023/04/19 04:45:05;;;;;;;;;;;11.80;86.90;;;;;;6154310;23;19905;-96
2023/04/19 04:47:41;;;;;;;;;;;11.90;86.60;;;;;;6151261;23;19929;-95
2023/04/19 04:50:13;;;;;;;;;;;11.90;85.50;;;;;;6126687;23;19912;-96
2023/04/19 04:52:42;;;;;;;;;;;12.00;85.30;;;;;;6126150;23;20361;-96
2023/04/19 04:55:13;;;;;;;;;;;12.10;85.40;;;;;;6121036;23;19890;-96
2023/04/19 04:57:41;;;;;;;;;;;12.20;85.30;;;;;;6125512;23;19905;-96
2023/04/19 05:00:12;;;;;;;;;;;12.30;85.20;;;;;;6102404;23;19893;-96
2023/04/19 05:02:49;;;;;;;;;;;12.30;85.20;;;;;;6152374;23;19913;-96
2023/04/19 05:05:19;;;;;;;;;;;12.30;84.80;;;;;;6127748;23;19925;-96
2023/04/19 05:36:02;;;;;;;;;;;12.70;84.20;;;;;;6133646;23;19927;-96
2023/04/19 05:38:29;;;;;;;;;;;12.80;83.20;;;;;;6101771;23;19901;-96
2023/04/19 05:40:59;;;;;;;;;;;12.90;82.60;;;;;;6128225;23;19905;-96
2023/04/19 05:43:26;;;;;;;;;;;13.10;81.80;;;;;;6127000;23;19905;-96
2023/04/19 05:45:56;;;;;;;;;;;13.20;81.40;;;;;;6126270;23;19924;-96
2023/04/19 05:48:22;;;;;;;;;;;13.20;81.60;;;;;;6127348;23;19953;-96
2023/04/19 05:51:00;;;;;;;;;;;13.30;81.50;;;;;;6127086;23;19904;-96
2023/04/19 05:53:28;;;;;;;;;;;13.40;82.10;;;;;;6126347;23;19909;-96
2023/04/19 05:55:54;;;;;;;;;;;13.40;82.60;;;;;;6126455;23;19905;-96
2023/04/19 05:58:20;;;;;;;;;;;13.60;83.00;;;;;;6138212;23;19932;-96
2023/04/19 06:00:56;;;;;;;;;;;13.70;82.50;;;;;;6123797;23;19912;-96
2023/04/19 06:03:25;;;;;;;;;;;13.80;82.20;;;;;;6129286;23;19908;-96
2023/04/19 06:05:54;;;;;;;;;;;14.00;79.70;;;;;;6153336;23;19911;-96
2023/04/19 06:08:21;;;;;;;;;;;14.20;79.80;;;;;;6126355;23;19906;-96
2023/04/19 06:10:53;;;;;;;;;;;14.30;79.00;;;;;;6126821;23;19928;-96
2023/04/19 06:13:19;;;;;;;;;;;14.40;78.80;;;;;;6122499;23;19917;-96
2023/04/19 06:15:45;;;;;;;;;;;14.60;79.20;;;;;;6119568;23;19905;-96
2023/04/19 06:18:10;;;;;;;;;;;14.70;80.50;;;;;;6115511;23;20345;-96
2023/04/19 06:20:37;;;;;;;;;;;14.80;79.90;;;;;;6136769;23;19912;-96
2023/04/19 06:23:02;;;;;;;;;;;14.90;78.00;;;;;;6112145;23;19963;-96
2023/04/19 06:25:28;;;;;;;;;;;15.20;75.50;;;;;;6138553;23;20282;-96
2023/04/19 06:27:54;;;;;;;;;;;15.30;74.80;;;;;;6112242;23;19905;-96
2023/04/19 06:30:20;;;;;;;;;;;15.40;74.70;;;;;;6140057;23;19911;-95
2023/04/19 06:32:45;;;;;;;;;;;15.50;73.00;;;;;;6115435;23;19916;-96
2023/04/19 06:35:11;;;;;;;;;;;15.60;73.20;;;;;;6114660;23;19905;-96
2023/04/19 06:37:37;;;;;;;;;;;15.60;73.90;;;;;;6115696;23;19917;-96
2023/04/19 06:40:07;;;;;;;;;;;15.60;74.60;;;;;;6113636;23;19909;-96
2023/04/19 06:42:38;;;;;;;;;;;15.70;74.80;;;;;;6116677;23;19936;-96
2023/04/19 06:45:07;;;;;;;;;;;15.70;74.40;;;;;;6118491;23;19905;-96
2023/04/19 06:47:33;;;;;;;;;;;15.70;73.70;;;;;;6118682;23;19909;-96
2023/04/19 06:49:58;;;;;;;;;;;15.70;72.60;;;;;;6142934;23;19912;-96
2023/04/19 06:52:24;;;;;;;;;;;15.70;72.50;;;;;;6114907;23;19932;-96
2023/04/19 06:54:52;;;;;;;;;;;15.70;71.90;;;;;;6114098;23;19905;-96
2023/04/19 06:57:18;;;;;;;;;;;15.70;72.40;;;;;;6135649;23;19932;-96
2023/04/19 06:59:43;;;;;;;;;;;15.70;73.20;;;;;;6132242;23;19905;-96
2023/04/19 07:02:09;;;;;;;;;;;15.60;74.10;;;;;;6128465;23;19912;-96
2023/04/19 07:04:35;;;;;;;;;;;15.60;74.30;;;;;;6127432;23;20223;-95
2023/04/19 07:07:01;;;;;;;;;;;15.50;74.60;;;;;;6127727;23;19928;-96
2023/04/19 07:09:27;;;;;;;;;;;15.40;73.80;;;;;;6101737;23;20339;-96
2023/04/19 07:11:53;;;;;;;;;;;15.40;74.10;;;;;;6101380;23;20216;-96
2023/04/19 07:14:19;;;;;;;;;;;15.40;74.30;;;;;;6128011;23;19911;-96
2023/04/19 07:16:45;;;;;;;;;;;15.40;73.80;;;;;;6101274;23;19905;-95
2023/04/19 07:19:11;;;;;;;;;;;15.40;72.70;;;;;;6127482;23;19904;-96
2023/04/19 07:21:38;;;;;;;;;;;15.50;72.90;;;;;;6128278;23;19905;-96
2023/04/19 07:24:04;;;;;;;;;;;15.50;73.60;;;;;;6101279;23;19972;-96
2023/04/19 07:26:29;;;;;;;;;;;15.60;73.30;;;;;;6127762;23;20235;-96
2023/04/19 07:28:55;;;;;;;;;;;15.70;73.10;;;;;;6126939;23;20323;-96
2023/04/19 07:31:21;;;;;;;;;;;15.70;71.60;;;;;;6127565;23;19912;-95
2023/04/19 07:33:47;;;;;;;;;;;15.60;71.20;;;;;;6126859;23;19909;-95
2023/04/19 07:36:12;;;;;;;;;;;15.70;70.90;;;;;;6127021;23;19932;-95
2023/04/19 07:38:38;;;;;;;;;;;15.70;71.40;;;;;;6127765;23;19909;-96
2023/04/19 07:41:04;;;;;;;;;;;15.80;70.80;;;;;;6101278;23;19960;-96
2023/04/19 07:43:29;;;;;;;;;;;15.90;71.20;;;;;;6127302;23;19961;-95
2023/04/19 07:45:55;;;;;;;;;;;16.00;71.30;;;;;;6127710;23;19905;-96
2023/04/19 07:48:21;;;;;;;;;;;16.00;69.80;;;;;;6127090;23;19905;-96
2023/04/19 07:50:46;;;;;;;;;;;16.10;70.70;;;;;;6127372;23;19912;-96
2023/04/19 07:53:12;;;;;;;;;;;16.20;68.30;;;;;;6127862;23;19952;-96
2023/04/19 07:55:37;;;;;;;;;;;16.30;69.40;;;;;;6127217;23;19909;-96
2023/04/19 07:58:03;;;;;;;;;;;16.30;68.00;;;;;;6127435;23;19956;-95
2023/04/19 08:00:28;;;;;;;;;;;16.40;67.50;;;;;;6127246;23;20370;-96
2023/04/19 08:02:55;;;;;;;;;;;16.40;68.40;;;;;;6101051;23;20353;-95
2023/04/19 08:05:21;;;;;;;;;;;16.50;67.50;;;;;;6127108;23;19958;-95
2023/04/19 08:07:47;;;;;;;;;;;16.50;66.60;;;;;;6101087;23;19905;-96
2023/04/19 08:10:17;;;;;;;;;;;16.60;66.50;;;;;;6125996;23;21591;-95
2023/04/19 08:12:43;;;;;;;;;;;16.70;67.80;;;;;;6127165;23;19913;-95
2023/04/19 08:15:08;;;;;;;;;;;16.90;68.60;;;;;;6127103;23;19974;-94
2023/04/19 08:17:34;;;;;;;;;;;16.90;67.00;;;;;;6100843;23;19905;-96
2023/04/19 08:20:00;;;;;;;;;;;16.90;66.60;;;;;;6127025;23;19905;-96
2023/04/19 08:22:25;;;;;;;;;;;17.00;65.90;;;;;;6128079;23;19905;-96
2023/04/19 08:24:51;;;;;;;;;;;17.10;65.20;;;;;;6127398;23;20231;-96
2023/04/19 08:27:17;;;;;;;;;;;17.10;62.60;;;;;;6127664;23;19912;-96
2023/04/19 08:29:43;;;;;;;;;;;17.10;61.10;;;;;;6127235;23;19908;-96
2023/04/19 08:32:10;;;;;;;;;;;17.10;62.80;;;;;;6126817;23;19988;-95
2023/04/19 08:34:36;;;;;;;;;;;17.10;61.40;;;;;;6126896;23;19905;-96
2023/04/19 08:37:02;;;;;;;;;;;17.10;63.10;;;;;;6127020;23;19923;-96
2023/04/19 08:39:28;;;;;;;;;;;17.20;62.00;;;;;;6126922;23;19984;-96
2023/04/19 08:41:55;;;;;;;;;;;17.20;62.60;;;;;;6128220;23;19912;-96
2023/04/19 08:44:21;;;;;;;;;;;17.20;64.10;;;;;;6102889;23;20286;-96
2023/04/19 08:46:49;;;;;;;;;;;17.30;62.20;;;;;;6128766;23;19905;-96
2023/04/19 08:49:15;;;;;;;;;;;17.30;62.00;;;;;;6128876;23;19905;-95
2023/04/19 08:51:42;;;;;;;;;;;17.30;61.00;;;;;;6102760;23;19912;-96
2023/04/19 08:54:08;;;;;;;;;;;17.30;61.90;;;;;;6129260;23;19905;-95
2023/04/19 08:56:34;;;;;;;;;;;17.30;61.90;;;;;;6129115;23;20325;-96
2023/04/19 08:58:59;;;;;;;;;;;17.40;62.30;;;;;;6129236;23;19936;-96
2023/04/19 09:01:25;;;;;;;;;;;17.40;60.40;;;;;;6128897;23;19937;-96
2023/04/19 09:03:50;;;;;;;;;;;17.40;60.40;;;;;;6128758;23;19912;-95
2023/04/19 09:06:16;;;;;;;;;;;17.50;61.40;;;;;;6102701;23;19952;-95
2023/04/19 09:08:41;;;;;;;;;;;17.60;61.70;;;;;;6128838;23;20326;-96
2023/04/19 09:11:07;;;;;;;;;;;17.80;62.90;;;;;;6128895;23;20239;-96
2023/04/19 09:13:35;;;;;;;;;;;17.90;61.80;;;;;;6128950;23;19932;-95
2023/04/19 09:16:01;;;;;;;;;;;18.00;62.80;;;;;;6128658;23;19904;-96
2023/04/19 09:18:27;;;;;;;;;;;18.00;61.50;;;;;;6128767;23;19927;-95
2023/04/19 09:20:59;;;;;;;;;;;18.00;64.40;;;;;;6128919;23;19973;-95
2023/04/19 09:23:26;;;;;;;;;;;17.80;59.70;;;;;;6128607;23;19905;-96
2023/04/19 09:25:53;;;;;;;;;;;17.70;61.70;;;;;;6128344;23;19905;-96
2023/04/19 09:28:18;;;;;;;;;;;17.70;58.90;;;;;;6128663;23;19911;-96
2023/04/19 09:30:45;;;;;;;;;;;17.70;59.60;;;;;;6132739;23;19929;-96
2023/04/19 09:33:11;;;;;;;;;;;17.80;61.40;;;;;;6131122;23;20374;-96
2023/04/19 09:35:55;;;;;;;;;;;17.80;58.90;;;;;;6139975;23;19904;-96
2023/04/19 09:38:22;;;;;;;;;;;17.90;59.50;;;;;;6128506;23;19956;-96
2023/04/19 09:40:49;;;;;;;;;;;18.00;59.40;;;;;;6134292;23;20315;-95
2023/04/19 09:43:22;;;;;;;;;;;18.10;58.10;;;;;;6128801;23;19911;-96
2023/04/19 09:45:47;;;;;;;;;;;18.30;59.60;;;;;;6128563;23;19905;-96
2023/04/19 09:48:13;;;;;;;;;;;18.40;60.20;;;;;;6128335;23;20000;-96
2023/04/19 09:50:55;;;;;;;;;;;18.60;59.50;;;;;;6126539;23;19988;-96
2023/04/19 09:53:21;;;;;;;;;;;18.50;58.60;;;;;;6128274;23;19908;-96
2023/04/19 09:55:47;;;;;;;;;;;18.40;59.40;;;;;;6128249;23;19979;-95
2023/04/19 09:58:13;;;;;;;;;;;18.50;60.00;;;;;;6128369;23;19908;-95
2023/04/19 10:00:40;;;;;;;;;;;18.50;60.70;;;;;;6128477;23;19909;-96
2023/04/19 10:03:08;;;;;;;;;;;18.70;60.30;;;;;;6128166;23;20334;-96
2023/04/19 10:05:35;;;;;;;;;;;18.80;59.60;;;;;;6127982;23;19964;-96
2023/04/19 10:08:01;;;;;;;;;;;18.90;59.10;;;;;;6128491;23;19905;-96
2023/04/19 10:10:28;;;;;;;;;;;19.10;59.10;;;;;;6128278;23;19916;-96
2023/04/19 10:12:55;;;;;;;;;;;19.20;59.30;;;;;;6127936;23;19909;-96
2023/04/19 10:15:21;;;;;;;;;;;19.20;58.90;;;;;;6128106;23;19905;-95
2023/04/19 10:17:47;;;;;;;;;;;19.30;59.30;;;;;;6128440;23;19905;-96
2023/04/19 10:20:20;;;;;;;;;;;19.20;57.80;;;;;;6128407;23;19909;-95
2023/04/19 10:22:45;;;;;;;;;;;19.20;60.10;;;;;;6128440;23;20319;-95
2023/04/19 10:25:12;;;;;;;;;;;19.30;59.80;;;;;;6128061;23;19911;-95
2023/04/19 10:27:44;;;;;;;;;;;19.30;58.50;;;;;;6128344;23;19937;-96
2023/04/19 10:30:19;;;;;;;;;;;19.40;57.70;;;;;;6128076;23;19911;-94
2023/04/19 10:32:46;;;;;;;;;;;19.50;60.10;;;;;;6128235;23;19916;-94
2023/04/19 10:35:17;;;;;;;;;;;19.40;58.70;;;;;;6128118;23;19905;-95
2023/04/19 10:38:02;;;;;;;;;;;19.30;56.90;;;;;;6127700;23;19920;-95
2023/04/19 10:40:47;;;;;;;;;;;19.20;57.50;;;;;;6128627;23;19904;-95
2023/04/19 10:43:12;;;;;;;;;;;19.20;56.70;;;;;;6128204;23;20339;-96
2023/04/19 10:45:38;;;;;;;;;;;19.30;59.30;;;;;;6128178;23;19911;-95
2023/04/19 10:48:03;;;;;;;;;;;19.30;55.30;;;;;;6128192;23;20262;-94
2023/04/19 10:50:29;;;;;;;;;;;19.10;54.50;;;;;;6128029;23;20237;-96
2023/04/19 10:52:55;;;;;;;;;;;19.10;58.40;;;;;;6128025;23;20036;-95
2023/04/19 10:55:20;;;;;;;;;;;19.20;57.80;;;;;;6128073;23;19912;-95
2023/04/19 10:57:59;;;;;;;;;;;19.30;58.10;;;;;;6101757;23;20224;-96
2023/04/19 11:00:30;;;;;;;;;;;19.30;56.30;;;;;;6127966;23;20323;-95
2023/04/19 11:02:55;;;;;;;;;;;19.30;55.10;;;;;;6127536;23;19908;-96
2023/04/19 11:05:21;;;;;;;;;;;19.20;54.70;;;;;;6127392;23;20003;-96
2023/04/19 11:07:46;;;;;;;;;;;19.30;56.00;;;;;;6101673;23;19947;-96
2023/04/19 11:10:12;;;;;;;;;;;19.30;55.80;;;;;;6128182;23;19990;-95
2023/04/19 11:12:40;;;;;;;;;;;19.30;57.00;;;;;;6127477;23;19909;-95
2023/04/19 11:15:08;;;;;;;;;;;19.20;56.90;;;;;;6127865;23;19905;-96
2023/04/19 11:17:36;;;;;;;;;;;19.20;57.70;;;;;;6127545;23;19911;-95
2023/04/19 11:20:05;;;;;;;;;;;19.10;59.20;;;;;;6127840;23;19904;-95
2023/04/19 11:22:37;;;;;;;;;;;19.00;58.60;;;;;;6127258;23;19984;-95
2023/04/19 11:25:30;;;;;;;;;;;19.00;57.90;;;;;;6127403;23;19912;-96
2023/04/19 11:27:56;;;;;;;;;;;19.10;57.30;;;;;;6121680;23;19905;-96
2023/04/19 11:30:27;;;;;;;;;;;19.20;56.40;;;;;;6127114;23;19921;-95
2023/04/19 11:32:54;;;;;;;;;;;19.30;58.50;;;;;;6127260;23;19995;-96
2023/04/19 11:35:23;;;;;;;;;;;19.40;57.50;;;;;;6127471;23;19905;-96
2023/04/19 11:37:49;;;;;;;;;;;19.50;57.10;;;;;;6127101;23;19917;-96
2023/04/19 11:40:18;;;;;;;;;;;19.60;56.80;;;;;;6127227;23;19937;-96
2023/04/19 11:42:44;;;;;;;;;;;19.80;56.90;;;;;;6127532;23;19905;-96
2023/04/19 11:45:10;;;;;;;;;;;20.00;57.40;;;;;;6101121;23;19956;-96
2023/04/19 11:47:48;;;;;;;;;;;20.30;56.50;;;;;;6127453;23;19905;-96
2023/04/19 11:50:33;;;;;;;;;;;20.40;53.90;;;;;;6130467;23;19905;-96
2023/04/19 11:52:59;;;;;;;;;;;20.70;55.40;;;;;;6101696;23;19909;-95
2023/04/19 11:55:25;;;;;;;;;;;20.90;53.60;;;;;;6105508;23;20234;-96
2023/04/19 11:57:50;;;;;;;;;;;21.00;54.40;;;;;;6130937;23;19905;-96
2023/04/19 12:00:26;;;;;;;;;;;21.10;54.80;;;;;;6135002;23;19905;-96
2023/04/19 12:02:52;;;;;;;;;;;21.30;53.20;;;;;;6110549;23;19956;-96
2023/04/19 12:05:18;;;;;;;;;;;21.40;52.80;;;;;;6104010;23;19905;-96
2023/04/19 12:08:05;;;;;;;;;;;21.30;51.80;;;;;;6136879;23;20208;-96
2023/04/19 12:10:31;;;;;;;;;;;21.40;52.30;;;;;;6117066;23;19912;-96
2023/04/19 12:12:57;;;;;;;;;;;21.60;53.60;;;;;;6143169;23;19909;-96
2023/04/19 12:15:39;;;;;;;;;;;21.50;51.60;;;;;;6104586;23;19909;-96
2023/04/19 12:18:04;;;;;;;;;;;21.50;51.40;;;;;;6127212;23;19905;-95
2023/04/19 12:20:34;;;;;;;;;;;21.30;52.60;;;;;;6127416;23;19912;-96
2023/04/19 12:22:59;;;;;;;;;;;21.30;53.40;;;;;;6127028;23;20282;-96
2023/04/19 12:25:32;;;;;;;;;;;21.50;54.30;;;;;;6126875;23;19905;-96
2023/04/19 12:27:58;;;;;;;;;;;21.70;55.20;;;;;;6127054;23;19905;-96
2023/04/19 12:30:24;;;;;;;;;;;22.00;53.40;;;;;;6101093;23;20290;-96
2023/04/19 12:32:51;;;;;;;;;;;22.20;51.10;;;;;;6126589;23;19916;-96
2023/04/19 12:35:17;;;;;;;;;;;22.20;51.00;;;;;;6127091;23;19941;-96
2023/04/19 12:37:42;;;;;;;;;;;22.30;49.60;;;;;;6127242;23;19921;-96
2023/04/19 12:40:08;;;;;;;;;;;22.20;50.70;;;;;;6130950;23;19905;-96
2023/04/19 12:42:34;;;;;;;;;;;22.30;50.30;;;;;;6130065;23;19905;-96
2023/04/19 12:45:00;;;;;;;;;;;22.30;52.60;;;;;;6104416;23;20319;-96
2023/04/19 12:47:25;;;;;;;;;;;22.40;48.70;;;;;;6102825;23;20339;-96
2023/04/19 12:49:51;;;;;;;;;;;22.40;50.00;;;;;;6128110;23;20283;-96
2023/04/19 12:52:17;;;;;;;;;;;22.30;50.10;;;;;;6125300;23;19993;-96
2023/04/19 12:54:43;;;;;;;;;;;22.10;51.20;;;;;;6127492;23;20349;-96
2023/04/19 12:57:09;;;;;;;;;;;22.10;51.80;;;;;;6102218;23;19944;-96
2023/04/19 12:59:34;;;;;;;;;;;21.90;52.80;;;;;;6128942;23;19912;-96
2023/04/19 13:02:00;;;;;;;;;;;21.80;53.60;;;;;;6128773;23;19937;-96
2023/04/19 13:04:26;;;;;;;;;;;21.80;53.60;;;;;;6134458;23;20327;-96
2023/04/19 13:06:51;;;;;;;;;;;21.80;52.70;;;;;;6134944;23;19905;-96
2023/04/19 13:09:17;;;;;;;;;;;21.80;53.90;;;;;;6108388;23;19905;-96
2023/04/19 13:11:43;;;;;;;;;;;21.80;52.30;;;;;;6107105;23;19916;-96
2023/04/19 14:02:15;;;;;;;;;;;21.60;51.20;;;;;;6098883;23;19940;-96
2023/04/19 14:04:40;;;;;;;;;;;21.20;52.50;;;;;;6098983;23;19909;-96
2023/04/19 14:07:06;;;;;;;;;;;21.00;52.50;;;;;;6073173;23;19905;-96
2023/04/19 14:09:31;;;;;;;;;;;20.80;53.50;;;;;;6099271;23;19905;-96
2023/04/19 14:11:57;;;;;;;;;;;20.70;53.80;;;;;;6098905;23;19947;-96
2023/04/19 14:14:26;;;;;;;;;;;20.60;53.70;;;;;;6081800;23;19909;-96
2023/04/19 14:16:51;;;;;;;;;;;20.50;54.90;;;;;;6076184;23;19906;-96
2023/04/19 14:19:17;;;;;;;;;;;20.40;54.80;;;;;;6098912;23;19905;-96
2023/04/19 14:21:42;;;;;;;;;;;20.30;54.20;;;;;;6099528;23;19909;-96
2023/04/19 14:24:08;;;;;;;;;;;20.30;54.50;;;;;;6072941;23;19909;-96
2023/04/19 14:26:33;;;;;;;;;;;20.20;55.20;;;;;;6098737;23;19905;-96
2023/04/19 14:28:59;;;;;;;;;;;20.20;55.80;;;;;;6073246;23;19905;-96
2023/04/19 14:31:25;;;;;;;;;;;20.10;56.50;;;;;;6073030;23;20323;-96
2023/04/19 14:33:51;;;;;;;;;;;20.00;57.30;;;;;;6098508;23;19961;-96
2023/04/19 14:36:16;;;;;;;;;;;20.00;56.90;;;;;;6098507;23;19976;-96
2023/04/19 14:38:42;;;;;;;;;;;19.90;57.10;;;;;;6072470;23;19906;-96
2023/04/19 14:41:07;;;;;;;;;;;19.50;58.70;;;;;;6096859;23;19969;-96
2023/04/19 14:43:33;;;;;;;;;;;18.70;63.50;;;;;;6073011;23;19909;-96
2023/04/19 14:45:58;;;;;;;;;;;18.10;64.60;;;;;;6073271;23;19944;-96
2023/04/19 14:48:24;;;;;;;;;;;17.70;66.60;;;;;;6097238;23;19905;-96
2023/04/19 14:50:50;;;;;;;;;;;17.20;71.00;;;;;;6098600;23;19905;-95
2023/04/19 14:53:15;;;;;;;;;;;16.50;74.20;;;;;;6098291;23;19909;-96
2023/04/19 14:55:41;;;;;;;;;;;16.10;76.30;;;;;;6098455;23;19953;-96
2023/04/19 14:58:06;;;;;;;;;;;15.80;80.10;;;;;;6123007;23;19917;-95
2023/04/19 15:00:32;;;;;;;;;;;15.60;79.70;;;;;;6127790;23;19909;-95
2023/04/19 15:02:58;;;;;;;;;;;15.40;80.30;;;;;;6127811;23;20323;-95
2023/04/19 15:05:24;;;;;;;;;;;15.40;80.60;;;;;;6127304;23;20224;-96
2023/04/19 15:07:50;;;;;;;;;;;15.40;81.50;;;;;;6127554;23;19905;-96
2023/04/19 15:10:15;;;;;;;;;;;15.40;81.90;;;;;;6101663;23;20235;-95
2023/04/19 15:12:41;;;;;;;;;;;15.50;81.50;;;;;;6127827;23;20323;-95
2023/04/19 15:15:07;;;;;;;;;;;15.60;82.10;;;;;;6127895;23;19905;-96
2023/04/19 15:17:32;;;;;;;;;;;15.70;83.20;;;;;;6101502;23;19905;-95
2023/04/19 15:19:58;;;;;;;;;;;15.80;82.00;;;;;;6127518;23;19905;-95
2023/04/19 15:22:23;;;;;;;;;;;16.00;82.00;;;;;;6127398;23;20242;-96
2023/04/19 15:24:49;;;;;;;;;;;16.20;83.10;;;;;;6127646;23;19904;-96
2023/04/19 15:27:15;;;;;;;;;;;16.40;83.00;;;;;;6127803;23;19912;-95
2023/04/19 15:29:40;;;;;;;;;;;16.40;82.30;;;;;;6101451;23;19905;-95
2023/04/19 15:32:06;;;;;;;;;;;16.50;81.40;;;;;;6101177;23;19967;-95
2023/04/19 15:34:32;;;;;;;;;;;16.60;82.00;;;;;;6127604;23;19905;-96
2023/04/19 15:36:57;;;;;;;;;;;16.80;81.40;;;;;;6127656;23;19912;-96
2023/04/19 15:39:23;;;;;;;;;;;16.90;80.80;;;;;;6127160;23;19909;-96
2023/04/19 15:41:49;;;;;;;;;;;17.10;79.80;;;;;;6127211;23;19912;-95
2023/04/19 15:44:15;;;;;;;;;;;17.30;79.20;;;;;;6127234;23;19905;-96
2023/04/19 15:46:40;;;;;;;;;;;17.30;78.00;;;;;;6128038;23;19941;-96
2023/04/19 15:49:06;;;;;;;;;;;17.40;77.90;;;;;;6101329;23;20245;-96
2023/04/19 15:51:31;;;;;;;;;;;17.40;79.90;;;;;;6101355;23;19905;-96
2023/04/19 15:53:57;;;;;;;;;;;17.40;78.30;;;;;;6101076;23;19908;-96
2023/04/19 15:56:23;;;;;;;;;;;17.50;78.30;;;;;;6127150;23;19991;-96
2023/04/19 15:58:48;;;;;;;;;;;17.50;77.30;;;;;;6101033;23;19913;-96
2023/04/19 16:01:14;;;;;;;;;;;17.70;76.90;;;;;;6127445;23;19905;-96
2023/04/19 16:03:40;;;;;;;;;;;17.80;75.50;;;;;;6127072;23;19912;-96
2023/04/19 16:06:05;;;;;;;;;;;17.80;76.10;;;;;;6127847;23;19905;-96
2023/04/19 16:08:31;;;;;;;;;;;17.80;76.60;;;;;;6127226;23;20235;-96
2023/04/19 16:10:57;;;;;;;;;;;17.80;77.80;;;;;;6127336;23;19912;-96
2023/04/19 16:13:22;;;;;;;;;;;17.70;77.60;;;;;;6126985;23;19916;-96
2023/04/19 16:15:48;;;;;;;;;;;17.60;77.30;;;;;;6127088;23;19939;-96
2023/04/19 16:18:13;;;;;;;;;;;17.60;76.40;;;;;;6127024;23;19909;-96
2023/04/19 16:20:39;;;;;;;;;;;17.50;76.30;;;;;;6126979;23;19933;-95
2023/04/19 16:23:05;;;;;;;;;;;17.60;76.30;;;;;;6126961;23;19909;-95
2023/04/19 16:25:30;;;;;;;;;;;17.50;75.90;;;;;;6127090;23;19905;-96
2023/04/19 16:27:56;;;;;;;;;;;17.40;76.70;;;;;;6126859;23;20000;-94
2023/04/19 16:30:22;;;;;;;;;;;17.40;77.60;;;;;;6126888;23;19912;-95
2023/04/19 16:32:48;;;;;;;;;;;17.30;77.60;;;;;;6126939;23;20044;-95
2023/04/19 16:35:14;;;;;;;;;;;17.30;78.30;;;;;;6126946;23;19909;-95
2023/04/19 16:37:40;;;;;;;;;;;17.20;78.00;;;;;;6126938;23;19905;-95
2023/04/19 16:40:09;;;;;;;;;;;17.30;77.40;;;;;;6126942;23;19912;-95
2023/04/19 16:42:35;;;;;;;;;;;17.30;78.80;;;;;;6126972;23;19905;-95
2023/04/19 16:45:01;;;;;;;;;;;17.30;78.30;;;;;;6126656;23;19905;-94
2023/04/19 16:47:26;;;;;;;;;;;17.30;79.10;;;;;;6126423;23;19929;-93
2023/04/19 16:49:52;;;;;;;;;;;17.30;79.70;;;;;;6126334;23;19905;-94
2023/04/19 16:52:17;;;;;;;;;;;17.20;79.00;;;;;;6126390;23;20004;-94
2023/04/19 16:54:43;;;;;;;;;;;17.10;78.20;;;;;;6126427;23;19913;-94
2023/04/19 16:57:09;;;;;;;;;;;17.10;78.70;;;;;;6126122;23;19917;-94
2023/04/19 16:59:35;;;;;;;;;;;17.00;80.10;;;;;;6126448;23;19904;-94
2023/04/19 17:02:01;;;;;;;;;;;16.80;80.20;;;;;;6127368;23;19984;-94
2023/04/19 17:04:26;;;;;;;;;;;16.80;80.60;;;;;;6128603;23;19905;-95
2023/04/19 17:06:52;;;;;;;;;;;16.70;79.90;;;;;;6128669;23;19905;-95
2023/04/19 17:09:17;;;;;;;;;;;16.70;80.90;;;;;;6128763;23;19912;-95
2023/04/19 17:11:43;;;;;;;;;;;16.70;82.70;;;;;;6128751;23;19911;-95
2023/04/19 17:14:08;;;;;;;;;;;16.60;82.90;;;;;;6128626;23;19948;-94
2023/04/19 17:16:34;;;;;;;;;;;16.60;82.80;;;;;;6128461;23;19909;-94
2023/04/19 17:18:59;;;;;;;;;;;16.60;83.30;;;;;;6128506;23;20295;-95
2023/04/19 17:21:26;;;;;;;;;;;16.60;83.40;;;;;;6128700;23;19905;-95
2023/04/19 17:23:51;;;;;;;;;;;16.50;83.70;;;;;;6129249;23;20310;-95
2023/04/19 17:26:17;;;;;;;;;;;16.50;83.30;;;;;;6128827;23;19912;-95
2023/04/19 17:28:42;;;;;;;;;;;16.40;82.10;;;;;;6128597;23;19912;-95
2023/04/19 17:31:08;;;;;;;;;;;16.30;83.80;;;;;;6128519;23;19905;-95
2023/04/19 17:33:34;;;;;;;;;;;16.30;85.80;;;;;;6128422;23;19999;-94
2023/04/19 17:35:59;;;;;;;;;;;16.20;86.30;;;;;;6102530;23;19912;-94
2023/04/19 17:38:25;;;;;;;;;;;16.10;86.50;;;;;;6128517;23;19905;-95
2023/04/19 17:40:50;;;;;;;;;;;16.10;86.60;;;;;;6128321;23;20235;-95
2023/04/19 17:43:16;;;;;;;;;;;16.00;87.10;;;;;;6128374;23;19928;-95
2023/04/19 17:45:41;;;;;;;;;;;16.10;87.30;;;;;;6128748;23;19912;-95
2023/04/19 17:48:07;;;;;;;;;;;16.00;87.00;;;;;;6128399;23;19905;-95
2023/04/19 17:50:32;;;;;;;;;;;16.00;86.70;;;;;;6128942;23;19905;-96
2023/04/19 17:52:58;;;;;;;;;;;15.90;86.80;;;;;;6128693;23;19991;-95
2023/04/19 17:55:24;;;;;;;;;;;15.90;87.10;;;;;;6128459;23;19995;-95
2023/04/19 17:57:50;;;;;;;;;;;15.90;86.70;;;;;;6128149;23;19987;-95
2023/04/19 18:00:16;;;;;;;;;;;16.00;86.70;;;;;;6128174;23;20220;-96
2023/04/19 18:02:42;;;;;;;;;;;16.00;86.30;;;;;;6128680;23;20263;-95
2023/04/19 18:05:07;;;;;;;;;;;16.00;86.70;;;;;;6128520;23;19905;-95
2023/04/19 18:07:36;;;;;;;;;;;15.90;87.10;;;;;;6128565;23;19905;-95
2023/04/19 18:10:02;;;;;;;;;;;15.80;87.40;;;;;;6128876;23;19953;-95
2023/04/19 18:12:28;;;;;;;;;;;15.70;88.60;;;;;;6128162;23;19953;-95
2023/04/19 18:14:53;;;;;;;;;;;15.70;88.10;;;;;;6128560;23;19909;-95
2023/04/19 18:17:20;;;;;;;;;;;15.70;88.30;;;;;;6128131;23;20242;-95
2023/04/19 18:19:45;;;;;;;;;;;15.60;88.10;;;;;;6128344;23;19908;-95
2023/04/19 18:22:11;;;;;;;;;;;15.60;87.90;;;;;;6135857;23;19980;-96
2023/04/19 18:24:42;;;;;;;;;;;15.50;87.90;;;;;;6105463;23;19905;-96
2023/04/19 18:27:08;;;;;;;;;;;15.60;88.10;;;;;;6107014;23;19905;-96
2023/04/19 18:29:33;;;;;;;;;;;15.50;88.70;;;;;;6130763;23;19992;-96
2023/04/19 18:31:59;;;;;;;;;;;15.40;89.60;;;;;;6104643;23;19905;-96
2023/04/19 18:34:24;;;;;;;;;;;15.40;89.90;;;;;;6103555;23;19909;-96
2023/04/19 18:36:53;;;;;;;;;;;15.40;89.80;;;;;;6104055;23;19980;-96
2023/04/19 18:39:19;;;;;;;;;;;15.40;89.80;;;;;;6105766;23;19905;-96
2023/04/19 18:41:44;;;;;;;;;;;15.30;89.90;;;;;;6104713;23;20025;-96
2023/04/19 18:44:10;;;;;;;;;;;15.30;90.10;;;;;;6103090;23;19905;-96
2023/04/19 18:46:36;;;;;;;;;;;15.30;90.20;;;;;;6104620;23;19909;-96
2023/04/19 18:49:01;;;;;;;;;;;15.20;90.90;;;;;;6104233;23;20219;-96
2023/04/19 18:51:27;;;;;;;;;;;15.20;91.60;;;;;;6112606;23;19913;-96
2023/04/19 18:53:53;;;;;;;;;;;15.20;91.90;;;;;;6114580;23;19909;-96
2023/04/19 18:56:19;;;;;;;;;;;15.10;91.70;;;;;;6140159;23;19930;-96
2023/04/19 18:58:45;;;;;;;;;;;15.10;91.50;;;;;;6114541;23;19913;-96
2023/04/19 19:01:10;;;;;;;;;;;15.10;91.90;;;;;;6113239;23;20315;-96
2023/04/19 19:03:36;;;;;;;;;;;15.00;91.50;;;;;;6113344;23;19909;-96
2023/04/19 19:06:04;;;;;;;;;;;14.90;91.60;;;;;;6138624;23;19928;-96
2023/04/19 19:08:30;;;;;;;;;;;14.90;91.80;;;;;;6114546;23;19905;-96
2023/04/19 19:10:56;;;;;;;;;;;14.90;91.60;;;;;;6113798;23;19905;-96
2023/04/19 19:13:22;;;;;;;;;;;14.90;91.50;;;;;;6113505;23;19956;-96
2023/04/19 19:15:47;;;;;;;;;;;14.80;91.20;;;;;;6114980;23;19941;-96
2023/04/19 19:18:13;;;;;;;;;;;14.80;91.50;;;;;;6114387;23;19915;-96
2023/04/19 19:20:39;;;;;;;;;;;14.80;91.60;;;;;;6114153;23;19912;-96
2023/04/19 19:23:05;;;;;;;;;;;14.70;91.40;;;;;;6114525;23;19905;-96
2023/04/19 19:25:31;;;;;;;;;;;14.70;91.40;;;;;;6114197;23;19905;-96
2023/04/19 19:27:58;;;;;;;;;;;14.60;91.80;;;;;;6113634;23;19931;-96
2023/04/19 19:30:30;;;;;;;;;;;14.60;91.70;;;;;;6113246;23;19913;-96
2023/04/19 19:32:56;;;;;;;;;;;14.60;91.90;;;;;;6138353;23;19929;-96
2023/04/19 19:35:22;;;;;;;;;;;14.60;91.80;;;;;;6111576;23;19931;-96
2023/04/19 19:37:47;;;;;;;;;;;14.60;92.00;;;;;;6110248;23;19905;-96
2023/04/19 19:40:13;;;;;;;;;;;14.50;92.20;;;;;;6108875;23;19969;-96
2023/04/19 19:42:39;;;;;;;;;;;14.50;92.20;;;;;;6110109;23;19912;-96
2023/04/19 19:45:05;;;;;;;;;;;14.50;91.90;;;;;;6110387;23;19928;-96
2023/04/19 19:47:33;;;;;;;;;;;14.50;92.00;;;;;;6109687;23;19905;-96
2023/04/19 19:49:59;;;;;;;;;;;14.50;91.80;;;;;;6134999;23;19911;-96
2023/04/19 19:52:29;;;;;;;;;;;14.40;91.60;;;;;;6111685;23;19909;-96
2023/04/19 19:54:54;;;;;;;;;;;14.40;91.50;;;;;;6138027;23;19936;-96
2023/04/19 19:57:20;;;;;;;;;;;14.40;91.40;;;;;;6111788;23;19924;-96
2023/04/19 19:59:46;;;;;;;;;;;14.30;90.90;;;;;;6134798;23;19927;-96